Adah, Pennsylvania
Current Conditions -  °F | °C
As of 1:53 PM on Friday 31 Oct 2014 (Local Time) from KMGW Reporting Station
Overcast Overcast  
Wind Chill: 11°   Ceiling: 4200
Heat Index: 11°   Visibility: 10mi
Dew Point:   Wind: 0mph
Humidity: 52%   Direction: NA
Pressure: 29.87"   Gusts: NA
Location:  39.9°N, 79.92°W
Report Text: KMGW 311753Z 00000KT 10SM BKN042 OVC050 11/01 A2987 RMK AO2 SLP117 T01060011 10106 20078 58025
Loading
Personal Weather Stations






























Interactive Weather Map
Tropical Storm Tracking
New forecast layout! Learn more

10-Day Weather Forecast

Advertisements
Track Severe Weather on mobile